sensor_id;sensor_type;location;lat;lon;timestamp;temperature;humidity
46356;DHT22;32066;49.474;11.106;2024-02-16T00:01:08;14.20;95.60
46356;DHT22;32066;49.474;11.106;2024-02-16T00:03:37;14.10;95.60
46356;DHT22;32066;49.474;11.106;2024-02-16T00:06:05;14.10;95.60
46356;DHT22;32066;49.474;11.106;2024-02-16T00:08:37;14.10;95.60
46356;DHT22;32066;49.474;11.106;2024-02-16T00:11:06;14.10;95.60
46356;DHT22;32066;49.474;11.106;2024-02-16T00:13:35;14.10;95.60
46356;DHT22;32066;49.474;11.106;2024-02-16T00:16:04;14.10;95.60
46356;DHT22;32066;49.474;11.106;2024-02-16T00:18:33;14.10;95.60
46356;DHT22;32066;49.474;11.106;2024-02-16T00:21:02;14.10;95.60
46356;DHT22;32066;49.474;11.106;2024-02-16T00:23:31;14.00;95.80
46356;DHT22;32066;49.474;11.106;2024-02-16T00:26:03;14.00;95.60
46356;DHT22;32066;49.474;11.106;2024-02-16T00:28:33;14.00;95.50
46356;DHT22;32066;49.474;11.106;2024-02-16T00:31:02;14.00;95.60
46356;DHT22;32066;49.474;11.106;2024-02-16T00:33:31;14.00;95.50
46356;DHT22;32066;49.474;11.106;2024-02-16T00:35:59;14.00;95.60
46356;DHT22;32066;49.474;11.106;2024-02-16T00:38:28;14.00;95.80
46356;DHT22;32066;49.474;11.106;2024-02-16T00:40:57;14.00;95.60
46356;DHT22;32066;49.474;11.106;2024-02-16T00:43:28;14.00;95.60
46356;DHT22;32066;49.474;11.106;2024-02-16T00:45:57;14.00;95.60
46356;DHT22;32066;49.474;11.106;2024-02-16T00:48:25;14.00;95.70
46356;DHT22;32066;49.474;11.106;2024-02-16T00:50:54;13.90;95.70
46356;DHT22;32066;49.474;11.106;2024-02-16T00:53:23;14.00;95.70
46356;DHT22;32066;49.474;11.106;2024-02-16T00:55:51;13.90;95.70
46356;DHT22;32066;49.474;11.106;2024-02-16T00:58:20;13.90;95.70
46356;DHT22;32066;49.474;11.106;2024-02-16T01:00:51;13.90;95.80
46356;DHT22;32066;49.474;11.106;2024-02-16T01:03:20;13.90;95.80
46356;DHT22;32066;49.474;11.106;2024-02-16T01:05:49;13.90;95.80
46356;DHT22;32066;49.474;11.106;2024-02-16T01:08:17;13.90;95.80
46356;DHT22;32066;49.474;11.106;2024-02-16T01:10:46;13.90;95.90
46356;DHT22;32066;49.474;11.106;2024-02-16T01:13:15;13.90;95.90
46356;DHT22;32066;49.474;11.106;2024-02-16T01:15:44;13.90;95.90
46356;DHT22;32066;49.474;11.106;2024-02-16T01:18:15;13.90;95.90
46356;DHT22;32066;49.474;11.106;2024-02-16T01:20:44;13.90;95.90
46356;DHT22;32066;49.474;11.106;2024-02-16T01:23:12;13.90;96.00
46356;DHT22;32066;49.474;11.106;2024-02-16T01:25:41;13.80;96.00
46356;DHT22;32066;49.474;11.106;2024-02-16T01:28:09;13.80;96.00
46356;DHT22;32066;49.474;11.106;2024-02-16T01:30:38;13.80;96.00
46356;DHT22;32066;49.474;11.106;2024-02-16T01:33:07;13.80;96.00
46356;DHT22;32066;49.474;11.106;2024-02-16T01:35:39;13.80;96.00
46356;DHT22;32066;49.474;11.106;2024-02-16T01:38:07;13.80;96.00
46356;DHT22;32066;49.474;11.106;2024-02-16T01:40:36;13.80;96.00
46356;DHT22;32066;49.474;11.106;2024-02-16T01:43:04;13.80;96.00
46356;DHT22;32066;49.474;11.106;2024-02-16T01:45:33;13.80;96.00
46356;DHT22;32066;49.474;11.106;2024-02-16T01:48:02;13.80;96.00
46356;DHT22;32066;49.474;11.106;2024-02-16T01:50:31;13.80;96.00
46356;DHT22;32066;49.474;11.106;2024-02-16T01:53:02;13.80;96.10
46356;DHT22;32066;49.474;11.106;2024-02-16T01:55:32;13.80;96.00
46356;DHT22;32066;49.474;11.106;2024-02-16T01:58:01;13.80;96.10
46356;DHT22;32066;49.474;11.106;2024-02-16T02:00:29;13.80;96.10
46356;DHT22;32066;49.474;11.106;2024-02-16T02:02:58;13.80;96.10
46356;DHT22;32066;49.474;11.106;2024-02-16T02:05:26;13.80;96.10
46356;DHT22;32066;49.474;11.106;2024-02-16T02:07:55;13.70;96.10
46356;DHT22;32066;49.474;11.106;2024-02-16T02:10:26;13.70;96.10
46356;DHT22;32066;49.474;11.106;2024-02-16T02:12:55;13.70;96.10
46356;DHT22;32066;49.474;11.106;2024-02-16T02:15:23;13.70;96.20
46356;DHT22;32066;49.474;11.106;2024-02-16T02:17:52;13.70;96.20
46356;DHT22;32066;49.474;11.106;2024-02-16T02:20:21;13.70;96.20
46356;DHT22;32066;49.474;11.106;2024-02-16T02:22:52;13.70;96.20
46356;DHT22;32066;49.474;11.106;2024-02-16T02:25:20;13.70;96.20
46356;DHT22;32066;49.474;11.106;2024-02-16T02:27:49;13.70;96.20
46356;DHT22;32066;49.474;11.106;2024-02-16T02:30:18;13.70;96.20
46356;DHT22;32066;49.474;11.106;2024-02-16T02:32:46;13.70;96.20
46356;DHT22;32066;49.474;11.106;2024-02-16T02:35:18;13.70;96.30
46356;DHT22;32066;49.474;11.106;2024-02-16T02:37:47;13.60;96.30
46356;DHT22;32066;49.474;11.106;2024-02-16T02:40:18;13.70;96.30
46356;DHT22;32066;49.474;11.106;2024-02-16T02:42:47;13.60;96.30
46356;DHT22;32066;49.474;11.106;2024-02-16T02:45:15;13.70;96.30
46356;DHT22;32066;49.474;11.106;2024-02-16T02:47:44;13.70;96.30
46356;DHT22;32066;49.474;11.106;2024-02-16T02:50:13;13.60;96.30
46356;DHT22;32066;49.474;11.106;2024-02-16T02:52:41;13.60;96.30
46356;DHT22;32066;49.474;11.106;2024-02-16T02:55:11;13.60;96.30
46356;DHT22;32066;49.474;11.106;2024-02-16T02:57:42;13.60;96.30
46356;DHT22;32066;49.474;11.106;2024-02-16T03:00:12;13.60;96.40
46356;DHT22;32066;49.474;11.106;2024-02-16T03:02:41;13.60;96.30
46356;DHT22;32066;49.474;11.106;2024-02-16T03:05:10;13.60;96.30
46356;DHT22;32066;49.474;11.106;2024-02-16T03:07:39;13.60;96.30
46356;DHT22;32066;49.474;11.106;2024-02-16T03:10:08;13.60;96.30
46356;DHT22;32066;49.474;11.106;2024-02-16T03:12:37;13.60;96.30
46356;DHT22;32066;49.474;11.106;2024-02-16T03:15:09;13.60;96.20
46356;DHT22;32066;49.474;11.106;2024-02-16T03:17:38;13.60;96.20
46356;DHT22;32066;49.474;11.106;2024-02-16T03:20:07;13.60;96.30
46356;DHT22;32066;49.474;11.106;2024-02-16T03:22:36;13.60;96.30
46356;DHT22;32066;49.474;11.106;2024-02-16T03:25:05;13.60;96.30
46356;DHT22;32066;49.474;11.106;2024-02-16T03:27:34;13.60;96.20
46356;DHT22;32066;49.474;11.106;2024-02-16T03:30:04;13.60;96.30
46356;DHT22;32066;49.474;11.106;2024-02-16T03:32:35;13.50;96.30
46356;DHT22;32066;49.474;11.106;2024-02-16T03:35:04;13.50;96.30
46356;DHT22;32066;49.474;11.106;2024-02-16T03:37:33;13.50;96.30
46356;DHT22;32066;49.474;11.106;2024-02-16T03:40:06;13.50;96.30
46356;DHT22;32066;49.474;11.106;2024-02-16T03:42:35;13.50;96.30
46356;DHT22;32066;49.474;11.106;2024-02-16T03:45:05;13.60;96.30
46356;DHT22;32066;49.474;11.106;2024-02-16T03:47:36;13.50;96.30
46356;DHT22;32066;49.474;11.106;2024-02-16T03:50:06;13.50;96.30
46356;DHT22;32066;49.474;11.106;2024-02-16T03:52:35;13.50;96.30
46356;DHT22;32066;49.474;11.106;2024-02-16T03:55:04;13.50;96.30
46356;DHT22;32066;49.474;11.106;2024-02-16T03:57:33;13.50;96.30
46356;DHT22;32066;49.474;11.106;2024-02-16T04:00:02;13.50;96.30
46356;DHT22;32066;49.474;11.106;2024-02-16T04:02:40;13.50;96.30
46356;DHT22;32066;49.474;11.106;2024-02-16T04:05:09;13.50;96.40
46356;DHT22;32066;49.474;11.106;2024-02-16T04:07:37;13.50;96.20
46356;DHT22;32066;49.474;11.106;2024-02-16T04:10:07;13.50;96.30
46356;DHT22;32066;49.474;11.106;2024-02-16T04:12:35;13.50;96.50
46356;DHT22;32066;49.474;11.106;2024-02-16T04:15:05;13.50;96.30
46356;DHT22;32066;49.474;11.106;2024-02-16T04:17:33;13.50;96.30
46356;DHT22;32066;49.474;11.106;2024-02-16T04:20:06;13.50;96.30
46356;DHT22;32066;49.474;11.106;2024-02-16T04:22:35;13.50;96.30
46356;DHT22;32066;49.474;11.106;2024-02-16T04:25:05;13.40;96.30
46356;DHT22;32066;49.474;11.106;2024-02-16T04:27:34;13.40;96.30
46356;DHT22;32066;49.474;11.106;2024-02-16T04:30:04;13.40;96.30
46356;DHT22;32066;49.474;11.106;2024-02-16T04:32:33;13.40;96.30
46356;DHT22;32066;49.474;11.106;2024-02-16T04:35:05;13.40;96.40
46356;DHT22;32066;49.474;11.106;2024-02-16T04:37:37;13.40;96.40
46356;DHT22;32066;49.474;11.106;2024-02-16T04:40:07;13.40;96.40
46356;DHT22;32066;49.474;11.106;2024-02-16T04:42:38;13.40;96.40
46356;DHT22;32066;49.474;11.106;2024-02-16T04:45:10;13.40;96.40
46356;DHT22;32066;49.474;11.106;2024-02-16T04:47:39;13.40;96.40
46356;DHT22;32066;49.474;11.106;2024-02-16T04:50:10;13.40;96.40
46356;DHT22;32066;49.474;11.106;2024-02-16T04:52:39;13.40;96.30
46356;DHT22;32066;49.474;11.106;2024-02-16T04:55:09;13.40;96.30
46356;DHT22;32066;49.474;11.106;2024-02-16T04:57:41;13.40;96.40
46356;DHT22;32066;49.474;11.106;2024-02-16T05:00:11;13.40;96.40
46356;DHT22;32066;49.474;11.106;2024-02-16T05:02:40;13.40;96.40
46356;DHT22;32066;49.474;11.106;2024-02-16T05:05:11;13.30;96.40
46356;DHT22;32066;49.474;11.106;2024-02-16T05:07:41;13.30;96.40
46356;DHT22;32066;49.474;11.106;2024-02-16T05:10:14;13.40;96.40
46356;DHT22;32066;49.474;11.106;2024-02-16T05:12:45;13.40;96.50
46356;DHT22;32066;49.474;11.106;2024-02-16T05:15:14;13.40;96.50
46356;DHT22;32066;49.474;11.106;2024-02-16T05:17:42;13.30;96.50
46356;DHT22;32066;49.474;11.106;2024-02-16T05:20:14;13.40;96.50
46356;DHT22;32066;49.474;11.106;2024-02-16T05:22:46;13.40;96.50
46356;DHT22;32066;49.474;11.106;2024-02-16T05:25:18;13.40;96.60
46356;DHT22;32066;49.474;11.106;2024-02-16T05:27:47;13.30;96.50
46356;DHT22;32066;49.474;11.106;2024-02-16T05:30:15;13.30;96.60
46356;DHT22;32066;49.474;11.106;2024-02-16T05:32:44;13.30;96.60
46356;DHT22;32066;49.474;11.106;2024-02-16T05:35:17;13.30;96.60
46356;DHT22;32066;49.474;11.106;2024-02-16T05:37:47;13.30;96.60
46356;DHT22;32066;49.474;11.106;2024-02-16T05:40:17;13.30;96.70
46356;DHT22;32066;49.474;11.106;2024-02-16T05:42:51;13.30;96.70
46356;DHT22;32066;49.474;11.106;2024-02-16T05:45:20;13.30;96.70
46356;DHT22;32066;49.474;11.106;2024-02-16T05:47:50;13.30;96.70
46356;DHT22;32066;49.474;11.106;2024-02-16T05:50:22;13.30;96.80
46356;DHT22;32066;49.474;11.106;2024-02-16T05:52:51;13.30;96.80
46356;DHT22;32066;49.474;11.106;2024-02-16T05:55:20;13.30;96.80
46356;DHT22;32066;49.474;11.106;2024-02-16T05:57:50;13.30;96.80
46356;DHT22;32066;49.474;11.106;2024-02-16T06:00:18;13.30;96.80
46356;DHT22;32066;49.474;11.106;2024-02-16T06:02:47;13.30;96.80
46356;DHT22;32066;49.474;11.106;2024-02-16T06:05:16;13.30;96.80
46356;DHT22;32066;49.474;11.106;2024-02-16T06:07:45;13.30;96.90
46356;DHT22;32066;49.474;11.106;2024-02-16T06:10:14;13.30;96.90
46356;DHT22;32066;49.474;11.106;2024-02-16T06:12:43;13.30;97.00
46356;DHT22;32066;49.474;11.106;2024-02-16T06:15:12;13.30;97.00
46356;DHT22;32066;49.474;11.106;2024-02-16T06:17:41;13.30;96.90
46356;DHT22;32066;49.474;11.106;2024-02-16T06:20:10;13.30;96.90
46356;DHT22;32066;49.474;11.106;2024-02-16T06:22:39;13.30;96.90
46356;DHT22;32066;49.474;11.106;2024-02-16T06:25:11;13.30;97.00
46356;DHT22;32066;49.474;11.106;2024-02-16T06:27:39;13.30;97.00
46356;DHT22;32066;49.474;11.106;2024-02-16T06:30:09;13.30;97.00
46356;DHT22;32066;49.474;11.106;2024-02-16T06:32:38;13.30;97.00
46356;DHT22;32066;49.474;11.106;2024-02-16T06:35:08;13.30;97.00
46356;DHT22;32066;49.474;11.106;2024-02-16T06:37:37;13.20;97.00
46356;DHT22;32066;49.474;11.106;2024-02-16T06:40:07;13.30;97.00
46356;DHT22;32066;49.474;11.106;2024-02-16T06:42:40;13.20;97.00
46356;DHT22;32066;49.474;11.106;2024-02-16T06:45:09;13.20;97.00
46356;DHT22;32066;49.474;11.106;2024-02-16T06:47:37;13.20;97.00
46356;DHT22;32066;49.474;11.106;2024-02-16T06:50:07;13.20;97.00
46356;DHT22;32066;49.474;11.106;2024-02-16T06:52:35;13.20;97.00
46356;DHT22;32066;49.474;11.106;2024-02-16T06:55:05;13.20;97.00
46356;DHT22;32066;49.474;11.106;2024-02-16T06:57:34;13.30;97.00
46356;DHT22;32066;49.474;11.106;2024-02-16T07:00:07;13.30;97.10
46356;DHT22;32066;49.474;11.106;2024-02-16T07:02:36;13.20;97.00
46356;DHT22;32066;49.474;11.106;2024-02-16T07:05:07;13.30;97.00
46356;DHT22;32066;49.474;11.106;2024-02-16T07:07:36;13.20;97.00
46356;DHT22;32066;49.474;11.106;2024-02-16T07:10:07;13.30;97.00
46356;DHT22;32066;49.474;11.106;2024-02-16T07:12:39;13.30;97.00
46356;DHT22;32066;49.474;11.106;2024-02-16T07:15:10;13.20;97.00
46356;DHT22;32066;49.474;11.106;2024-02-16T07:17:40;13.30;97.00
46356;DHT22;32066;49.474;11.106;2024-02-16T07:20:09;15.50;99.90
46356;DHT22;32066;49.474;11.106;2024-02-16T07:22:41;15.70;99.90
46356;DHT22;32066;49.474;11.106;2024-02-16T07:25:11;16.10;98.60
46356;DHT22;32066;49.474;11.106;2024-02-16T07:27:40;16.20;96.20
46356;DHT22;32066;49.474;11.106;2024-02-16T07:30:13;15.20;94.60
46356;DHT22;32066;49.474;11.106;2024-02-16T07:32:42;14.70;95.20
46356;DHT22;32066;49.474;11.106;2024-02-16T07:35:14;14.00;95.90
46356;DHT22;32066;49.474;11.106;2024-02-16T07:37:43;13.50;96.90
46356;DHT22;32066;49.474;11.106;2024-02-16T07:40:12;13.00;97.70
46356;DHT22;32066;49.474;11.106;2024-02-16T07:42:40;12.90;98.30
46356;DHT22;32066;49.474;11.106;2024-02-16T07:45:13;12.70;98.70
46356;DHT22;32066;49.474;11.106;2024-02-16T07:47:42;12.50;99.00
46356;DHT22;32066;49.474;11.106;2024-02-16T07:50:10;12.30;99.40
46356;DHT22;32066;49.474;11.106;2024-02-16T07:52:41;12.10;99.90
46356;DHT22;32066;49.474;11.106;2024-02-16T07:55:11;11.90;99.90
46356;DHT22;32066;49.474;11.106;2024-02-16T07:57:42;11.80;99.90
46356;DHT22;32066;49.474;11.106;2024-02-16T08:00:16;11.80;99.90
46356;DHT22;32066;49.474;11.106;2024-02-16T08:02:45;11.80;99.90
46356;DHT22;32066;49.474;11.106;2024-02-16T08:05:13;11.80;99.90
46356;DHT22;32066;49.474;11.106;2024-02-16T08:07:46;12.00;99.90
46356;DHT22;32066;49.474;11.106;2024-02-16T08:10:14;12.00;99.90
46356;DHT22;32066;49.474;11.106;2024-02-16T08:12:43;12.10;99.90
46356;DHT22;32066;49.474;11.106;2024-02-16T08:15:15;12.10;99.90
46356;DHT22;32066;49.474;11.106;2024-02-16T08:17:49;12.10;99.90
46356;DHT22;32066;49.474;11.106;2024-02-16T08:20:18;12.10;99.90
46356;DHT22;32066;49.474;11.106;2024-02-16T08:22:47;12.20;99.90
46356;DHT22;32066;49.474;11.106;2024-02-16T08:25:16;12.20;99.90
46356;DHT22;32066;49.474;11.106;2024-02-16T08:27:44;12.20;99.90
46356;DHT22;32066;49.474;11.106;2024-02-16T08:30:16;12.10;99.90
46356;DHT22;32066;49.474;11.106;2024-02-16T08:32:44;12.20;99.90
46356;DHT22;32066;49.474;11.106;2024-02-16T08:35:13;12.20;99.90
46356;DHT22;32066;49.474;11.106;2024-02-16T08:37:44;12.20;99.90
46356;DHT22;32066;49.474;11.106;2024-02-16T08:40:13;12.10;99.90
46356;DHT22;32066;49.474;11.106;2024-02-16T08:42:42;12.10;99.90
46356;DHT22;32066;49.474;11.106;2024-02-16T08:45:14;12.10;99.80
46356;DHT22;32066;49.474;11.106;2024-02-16T08:47:43;12.10;99.90
46356;DHT22;32066;49.474;11.106;2024-02-16T08:50:12;12.10;99.90
46356;DHT22;32066;49.474;11.106;2024-02-16T08:52:41;12.00;99.90
46356;DHT22;32066;49.474;11.106;2024-02-16T08:55:10;11.90;99.90
46356;DHT22;32066;49.474;11.106;2024-02-16T08:57:39;12.00;99.90
46356;DHT22;32066;49.474;11.106;2024-02-16T09:00:09;12.00;99.90
46356;DHT22;32066;49.474;11.106;2024-02-16T09:02:40;12.10;99.90
46356;DHT22;32066;49.474;11.106;2024-02-16T09:05:10;12.20;99.90
46356;DHT22;32066;49.474;11.106;2024-02-16T09:07:39;12.20;99.90
46356;DHT22;32066;49.474;11.106;2024-02-16T09:10:08;12.30;99.80
46356;DHT22;32066;49.474;11.106;2024-02-16T09:12:37;12.30;99.80
46356;DHT22;32066;49.474;11.106;2024-02-16T09:15:07;12.30;99.80
46356;DHT22;32066;49.474;11.106;2024-02-16T09:17:35;12.30;99.70
46356;DHT22;32066;49.474;11.106;2024-02-16T09:20:08;12.30;99.70
46356;DHT22;32066;49.474;11.106;2024-02-16T09:22:37;12.20;99.70
46356;DHT22;32066;49.474;11.106;2024-02-16T09:25:07;12.20;99.80
46356;DHT22;32066;49.474;11.106;2024-02-16T09:27:36;12.10;99.90
46356;DHT22;32066;49.474;11.106;2024-02-16T09:30:08;11.90;99.90
46356;DHT22;32066;49.474;11.106;2024-02-16T09:32:39;12.20;99.90
46356;DHT22;32066;49.474;11.106;2024-02-16T09:35:10;12.30;99.90
46356;DHT22;32066;49.474;11.106;2024-02-16T09:37:40;12.50;99.70
46356;DHT22;32066;49.474;11.106;2024-02-16T09:40:12;12.70;99.30
46356;DHT22;32066;49.474;11.106;2024-02-16T09:42:41;12.70;99.20
46356;DHT22;32066;49.474;11.106;2024-02-16T09:45:12;12.80;99.20
46356;DHT22;32066;49.474;11.106;2024-02-16T09:47:43;13.10;99.00
46356;DHT22;32066;49.474;11.106;2024-02-16T09:50:16;13.20;98.10
46356;DHT22;32066;49.474;11.106;2024-02-16T09:52:47;13.30;98.00
46356;DHT22;32066;49.474;11.106;2024-02-16T09:55:17;13.30;98.00
46356;DHT22;32066;49.474;11.106;2024-02-16T09:57:46;13.50;97.70
46356;DHT22;32066;49.474;11.106;2024-02-16T10:00:15;13.70;97.40
46356;DHT22;32066;49.474;11.106;2024-02-16T10:02:44;13.70;97.20
46356;DHT22;32066;49.474;11.106;2024-02-16T10:05:20;13.70;97.00
46356;DHT22;32066;49.474;11.106;2024-02-16T10:07:49;13.70;96.90
46356;DHT22;32066;49.474;11.106;2024-02-16T10:10:21;13.60;97.00
46356;DHT22;32066;49.474;11.106;2024-02-16T10:13:00;13.60;97.20
46356;DHT22;32066;49.474;11.106;2024-02-16T10:15:29;13.70;97.10
46356;DHT22;32066;49.474;11.106;2024-02-16T10:17:58;13.60;97.20
46356;DHT22;32066;49.474;11.106;2024-02-16T10:20:30;13.50;97.30
46356;DHT22;32066;49.474;11.106;2024-02-16T10:23:05;13.60;97.20
46356;DHT22;32066;49.474;11.106;2024-02-16T10:25:34;13.50;97.50
46356;DHT22;32066;49.474;11.106;2024-02-16T10:28:08;13.50;97.50
46356;DHT22;32066;49.474;11.106;2024-02-16T10:30:39;13.60;97.50
46356;DHT22;32066;49.474;11.106;2024-02-16T10:33:09;13.60;97.40
46356;DHT22;32066;49.474;11.106;2024-02-16T10:35:41;13.60;97.40
46356;DHT22;32066;49.474;11.106;2024-02-16T10:38:10;13.60;97.40
46356;DHT22;32066;49.474;11.106;2024-02-16T10:40:40;13.50;97.50
46356;DHT22;32066;49.474;11.106;2024-02-16T10:43:13;13.60;97.50
46356;DHT22;32066;49.474;11.106;2024-02-16T10:45:42;13.60;97.40
46356;DHT22;32066;49.474;11.106;2024-02-16T10:48:13;13.70;97.50
46356;DHT22;32066;49.474;11.106;2024-02-16T10:50:44;13.70;97.40
46356;DHT22;32066;49.474;11.106;2024-02-16T10:53:19;13.80;97.40
46356;DHT22;32066;49.474;11.106;2024-02-16T10:55:50;13.80;97.60
46356;DHT22;32066;49.474;11.106;2024-02-16T10:58:19;13.80;97.70
46356;DHT22;32066;49.474;11.106;2024-02-16T11:00:51;13.90;97.50
46356;DHT22;32066;49.474;11.106;2024-02-16T11:03:22;13.90;97.50
46356;DHT22;32066;49.474;11.106;2024-02-16T11:05:55;13.90;97.50
46356;DHT22;32066;49.474;11.106;2024-02-16T11:08:25;13.90;97.30
46356;DHT22;32066;49.474;11.106;2024-02-16T11:10:59;13.90;97.40
46356;DHT22;32066;49.474;11.106;2024-02-16T11:13:35;13.80;97.50
46356;DHT22;32066;49.474;11.106;2024-02-16T11:16:07;13.80;97.60
46356;DHT22;32066;49.474;11.106;2024-02-16T11:18:39;13.70;97.60
46356;DHT22;32066;49.474;11.106;2024-02-16T11:21:15;13.80;97.60
46356;DHT22;32066;49.474;11.106;2024-02-16T11:23:44;13.90;97.50
46356;DHT22;32066;49.474;11.106;2024-02-16T11:26:13;14.00;97.40
46356;DHT22;32066;49.474;11.106;2024-02-16T11:28:43;14.00;97.20
46356;DHT22;32066;49.474;11.106;2024-02-16T11:31:11;14.00;97.00
46356;DHT22;32066;49.474;11.106;2024-02-16T11:33:43;13.80;97.20
46356;DHT22;32066;49.474;11.106;2024-02-16T11:36:16;13.80;97.20
46356;DHT22;32066;49.474;11.106;2024-02-16T11:38:45;13.80;97.30
46356;DHT22;32066;49.474;11.106;2024-02-16T11:41:15;13.90;97.30
46356;DHT22;32066;49.474;11.106;2024-02-16T11:43:43;13.90;97.10
46356;DHT22;32066;49.474;11.106;2024-02-16T11:46:13;13.90;97.10
46356;DHT22;32066;49.474;11.106;2024-02-16T11:48:42;13.90;97.20
46356;DHT22;32066;49.474;11.106;2024-02-16T11:51:14;13.90;97.00
46356;DHT22;32066;49.474;11.106;2024-02-16T11:53:55;13.80;97.20
46356;DHT22;32066;49.474;11.106;2024-02-16T11:56:24;13.80;97.30
46356;DHT22;32066;49.474;11.106;2024-02-16T11:58:54;13.70;97.50
46356;DHT22;32066;49.474;11.106;2024-02-16T12:01:23;13.70;97.60
46356;DHT22;32066;49.474;11.106;2024-02-16T12:03:51;13.70;97.60
46356;DHT22;32066;49.474;11.106;2024-02-16T12:06:20;13.80;97.50
46356;DHT22;32066;49.474;11.106;2024-02-16T12:08:52;13.80;97.60
46356;DHT22;32066;49.474;11.106;2024-02-16T12:11:23;13.90;97.60
46356;DHT22;32066;49.474;11.106;2024-02-16T12:13:52;13.80;97.60
46356;DHT22;32066;49.474;11.106;2024-02-16T12:16:20;13.60;97.90
46356;DHT22;32066;49.474;11.106;2024-02-16T12:18:49;13.60;98.20
46356;DHT22;32066;49.474;11.106;2024-02-16T12:21:18;13.60;98.20
46356;DHT22;32066;49.474;11.106;2024-02-16T12:23:48;13.60;98.10
46356;DHT22;32066;49.474;11.106;2024-02-16T12:26:19;13.60;98.20
46356;DHT22;32066;49.474;11.106;2024-02-16T12:28:48;13.80;98.10
46356;DHT22;32066;49.474;11.106;2024-02-16T12:31:20;13.80;98.00
46356;DHT22;32066;49.474;11.106;2024-02-16T12:33:49;13.80;98.20
46356;DHT22;32066;49.474;11.106;2024-02-16T12:36:18;13.50;98.60
46356;DHT22;32066;49.474;11.106;2024-02-16T12:38:48;13.60;98.70
46356;DHT22;32066;49.474;11.106;2024-02-16T12:41:19;13.60;98.80
46356;DHT22;32066;49.474;11.106;2024-02-16T12:43:48;13.70;98.70
46356;DHT22;32066;49.474;11.106;2024-02-16T12:46:19;13.80;98.60
46356;DHT22;32066;49.474;11.106;2024-02-16T12:48:48;13.80;98.50
46356;DHT22;32066;49.474;11.106;2024-02-16T12:51:18;13.80;98.50
46356;DHT22;32066;49.474;11.106;2024-02-16T12:53:48;13.70;98.80
46356;DHT22;32066;49.474;11.106;2024-02-16T12:56:22;13.80;98.60
46356;DHT22;32066;49.474;11.106;2024-02-16T12:58:51;13.80;98.60
46356;DHT22;32066;49.474;11.106;2024-02-16T13:01:20;13.80;98.50
46356;DHT22;32066;49.474;11.106;2024-02-16T13:03:50;13.70;98.40
46356;DHT22;32066;49.474;11.106;2024-02-16T13:06:19;13.70;98.40
46356;DHT22;32066;49.474;11.106;2024-02-16T13:08:48;13.80;98.30
46356;DHT22;32066;49.474;11.106;2024-02-16T13:11:16;13.80;98.30
46356;DHT22;32066;49.474;11.106;2024-02-16T13:13:48;13.80;98.10
46356;DHT22;32066;49.474;11.106;2024-02-16T13:16:17;13.90;98.00
46356;DHT22;32066;49.474;11.106;2024-02-16T13:18:46;13.80;98.00
46356;DHT22;32066;49.474;11.106;2024-02-16T13:21:15;13.90;98.00
46356;DHT22;32066;49.474;11.106;2024-02-16T13:23:44;14.00;98.00
46356;DHT22;32066;49.474;11.106;2024-02-16T13:26:13;14.10;98.10
46356;DHT22;32066;49.474;11.106;2024-02-16T13:28:42;14.20;97.90
46356;DHT22;32066;49.474;11.106;2024-02-16T13:31:13;14.30;97.70
46356;DHT22;32066;49.474;11.106;2024-02-16T13:33:42;14.30;97.50
46356;DHT22;32066;49.474;11.106;2024-02-16T13:36:11;14.40;97.40
46356;DHT22;32066;49.474;11.106;2024-02-16T13:38:39;14.50;97.30
46356;DHT22;32066;49.474;11.106;2024-02-16T13:41:08;14.30;96.80
46356;DHT22;32066;49.474;11.106;2024-02-16T13:43:36;14.30;97.00
46356;DHT22;32066;49.474;11.106;2024-02-16T13:46:05;14.10;96.90
46356;DHT22;32066;49.474;11.106;2024-02-16T13:48:36;14.30;96.80
46356;DHT22;32066;49.474;11.106;2024-02-16T13:51:07;14.30;96.90
46356;DHT22;32066;49.474;11.106;2024-02-16T13:53:35;14.10;96.40
46356;DHT22;32066;49.474;11.106;2024-02-16T13:56:06;14.10;96.70
46356;DHT22;32066;49.474;11.106;2024-02-16T13:58:34;14.10;96.70
46356;DHT22;32066;49.474;11.106;2024-02-16T14:01:04;14.20;96.80
46356;DHT22;32066;49.474;11.106;2024-02-16T14:03:36;14.30;96.80
46356;DHT22;32066;49.474;11.106;2024-02-16T14:06:06;14.30;96.80
46356;DHT22;32066;49.474;11.106;2024-02-16T14:08:36;14.30;96.90
46356;DHT22;32066;49.474;11.106;2024-02-16T14:11:05;14.40;96.70
46356;DHT22;32066;49.474;11.106;2024-02-16T14:13:36;14.50;96.70
46356;DHT22;32066;49.474;11.106;2024-02-16T14:16:06;14.50;96.70
46356;DHT22;32066;49.474;11.106;2024-02-16T14:18:38;14.60;96.40
46356;DHT22;32066;49.474;11.106;2024-02-16T14:21:07;14.80;96.60
46356;DHT22;32066;49.474;11.106;2024-02-16T14:23:35;14.50;96.50
46356;DHT22;32066;49.474;11.106;2024-02-16T14:26:04;14.60;96.60
46356;DHT22;32066;49.474;11.106;2024-02-16T14:28:33;14.70;96.60
46356;DHT22;32066;49.474;11.106;2024-02-16T14:31:01;14.80;96.60
46356;DHT22;32066;49.474;11.106;2024-02-16T14:33:32;14.80;96.80
46356;DHT22;32066;49.474;11.106;2024-02-16T14:36:05;14.90;96.70
46356;DHT22;32066;49.474;11.106;2024-02-16T14:38:35;14.90;96.50
46356;DHT22;32066;49.474;11.106;2024-02-16T14:41:03;14.90;96.50
46356;DHT22;32066;49.474;11.106;2024-02-16T14:43:32;14.80;96.60
46356;DHT22;32066;49.474;11.106;2024-02-16T14:46:01;14.80;96.80
46356;DHT22;32066;49.474;11.106;2024-02-16T14:48:30;14.90;96.80
46356;DHT22;32066;49.474;11.106;2024-02-16T14:50:59;14.80;96.90
46356;DHT22;32066;49.474;11.106;2024-02-16T14:53:31;14.70;97.20
46356;DHT22;32066;49.474;11.106;2024-02-16T14:55:59;14.60;97.30
46356;DHT22;32066;49.474;11.106;2024-02-16T14:58:28;14.60;97.50
46356;DHT22;32066;49.474;11.106;2024-02-16T15:00:58;14.60;97.70
46356;DHT22;32066;49.474;11.106;2024-02-16T15:03:27;14.60;97.80
46356;DHT22;32066;49.474;11.106;2024-02-16T15:05:56;14.50;97.80
46356;DHT22;32066;49.474;11.106;2024-02-16T15:08:24;14.50;97.90
46356;DHT22;32066;49.474;11.106;2024-02-16T15:10:55;14.50;98.00
46356;DHT22;32066;49.474;11.106;2024-02-16T15:13:24;14.50;98.00
46356;DHT22;32066;49.474;11.106;2024-02-16T15:15:55;14.50;98.00
46356;DHT22;32066;49.474;11.106;2024-02-16T15:18:24;14.50;98.10
46356;DHT22;32066;49.474;11.106;2024-02-16T15:20:53;14.50;98.20
46356;DHT22;32066;49.474;11.106;2024-02-16T15:23:21;14.40;98.20
46356;DHT22;32066;49.474;11.106;2024-02-16T15:25:50;14.40;98.20
46356;DHT22;32066;49.474;11.106;2024-02-16T15:28:21;14.40;98.30
46356;DHT22;32066;49.474;11.106;2024-02-16T15:30:50;14.20;98.40